sensor_id;sensor_type;location;lat;lon;timestamp;pressure;altitude;pressure_sealevel;temperature;humidity
16595;BME280;8410;52.532;13.336;2023-01-31T00:01:27;100895.84;;;4.61;81.56
16595;BME280;8410;52.532;13.336;2023-01-31T00:03:58;100906.25;;;4.68;80.63
16595;BME280;8410;52.532;13.336;2023-01-31T00:06:28;100909.88;;;4.73;80.88
16595;BME280;8410;52.532;13.336;2023-01-31T00:08:57;100903.38;;;4.81;80.75
16595;BME280;8410;52.532;13.336;2023-01-31T00:11:26;100892.47;;;5.07;79.73
16595;BME280;8410;52.532;13.336;2023-01-31T00:13:54;100904.75;;;4.73;80.99
16595;BME280;8410;52.532;13.336;2023-01-31T00:16:22;100905.69;;;4.52;81.61
16595;BME280;8410;52.532;13.336;2023-01-31T00:18:49;100912.41;;;4.50;81.89
16595;BME280;8410;52.532;13.336;2023-01-31T00:21:20;100910.81;;;4.54;82.25
16595;BME280;8410;52.532;13.336;2023-01-31T00:23:48;100921.09;;;4.55;81.72
16595;BME280;8410;52.532;13.336;2023-01-31T00:26:17;100925.34;;;4.55;81.59
16595;BME280;8410;52.532;13.336;2023-01-31T00:28:47;100923.22;;;4.66;81.66
16595;BME280;8410;52.532;13.336;2023-01-31T00:31:16;100937.88;;;4.71;81.00
16595;BME280;8410;52.532;13.336;2023-01-31T00:33:46;100928.78;;;4.78;80.78
16595;BME280;8410;52.532;13.336;2023-01-31T00:36:16;100947.47;;;4.56;81.52
16595;BME280;8410;52.532;13.336;2023-01-31T00:38:47;100938.63;;;4.48;81.91
16595;BME280;8410;52.532;13.336;2023-01-31T00:41:14;100951.81;;;4.58;82.15
16595;BME280;8410;52.532;13.336;2023-01-31T00:43:42;100951.25;;;4.66;81.28
16595;BME280;8410;52.532;13.336;2023-01-31T00:46:09;100956.78;;;4.55;82.04
16595;BME280;8410;52.532;13.336;2023-01-31T00:48:37;100953.00;;;4.67;81.38
16595;BME280;8410;52.532;13.336;2023-01-31T00:51:05;100956.59;;;4.72;81.63
16595;BME280;8410;52.532;13.336;2023-01-31T00:53:33;100958.81;;;5.07;80.18
16595;BME280;8410;52.532;13.336;2023-01-31T00:56:04;100967.84;;;4.77;80.98
16595;BME280;8410;52.532;13.336;2023-01-31T00:58:35;100976.66;;;4.85;80.55
16595;BME280;8410;52.532;13.336;2023-01-31T01:01:05;100980.16;;;4.87;80.60
16595;BME280;8410;52.532;13.336;2023-01-31T01:03:33;100989.88;;;4.75;80.70
16595;BME280;8410;52.532;13.336;2023-01-31T01:06:02;100985.00;;;4.81;80.47
16595;BME280;8410;52.532;13.336;2023-01-31T01:08:30;100990.72;;;4.96;80.96
16595;BME280;8410;52.532;13.336;2023-01-31T01:11:05;100995.69;;;4.93;80.80
16595;BME280;8410;52.532;13.336;2023-01-31T01:13:33;100995.56;;;4.90;80.28
16595;BME280;8410;52.532;13.336;2023-01-31T01:16:03;100992.59;;;4.79;80.93
16595;BME280;8410;52.532;13.336;2023-01-31T01:18:31;100994.50;;;5.06;79.83
16595;BME280;8410;52.532;13.336;2023-01-31T01:21:05;101006.00;;;4.96;79.28
16595;BME280;8410;52.532;13.336;2023-01-31T01:23:33;101006.63;;;5.12;79.92
16595;BME280;8410;52.532;13.336;2023-01-31T01:26:00;101012.69;;;4.93;79.82
16595;BME280;8410;52.532;13.336;2023-01-31T01:28:32;101006.97;;;4.77;80.01
16595;BME280;8410;52.532;13.336;2023-01-31T01:31:03;101011.41;;;5.04;79.50
16595;BME280;8410;52.532;13.336;2023-01-31T01:33:31;101006.22;;;5.01;79.73
16595;BME280;8410;52.532;13.336;2023-01-31T01:35:59;101011.63;;;5.08;79.75
16595;BME280;8410;52.532;13.336;2023-01-31T01:38:27;101021.31;;;4.96;79.28
16595;BME280;8410;52.532;13.336;2023-01-31T01:40:55;101019.72;;;4.98;80.05
16595;BME280;8410;52.532;13.336;2023-01-31T01:46:22;101015.88;;;4.87;80.06
16595;BME280;8410;52.532;13.336;2023-01-31T01:48:53;101026.66;;;5.02;80.00
16595;BME280;8410;52.532;13.336;2023-01-31T01:51:23;101024.56;;;4.92;80.62
16595;BME280;8410;52.532;13.336;2023-01-31T01:53:53;101031.06;;;4.84;80.55
16595;BME280;8410;52.532;13.336;2023-01-31T01:56:26;101032.53;;;4.79;80.24
16595;BME280;8410;52.532;13.336;2023-01-31T01:58:59;101034.78;;;4.92;81.01
16595;BME280;8410;52.532;13.336;2023-01-31T02:01:34;101040.81;;;4.73;81.09
16595;BME280;8410;52.532;13.336;2023-01-31T02:04:02;101044.59;;;4.83;81.47
16595;BME280;8410;52.532;13.336;2023-01-31T02:06:31;101039.88;;;4.92;80.48
16595;BME280;8410;52.532;13.336;2023-01-31T02:08:59;101051.19;;;4.78;81.37
16595;BME280;8410;52.532;13.336;2023-01-31T02:11:29;101061.28;;;4.96;81.19
16595;BME280;8410;52.532;13.336;2023-01-31T02:14:00;101069.88;;;4.98;81.15
16595;BME280;8410;52.532;13.336;2023-01-31T02:16:42;101064.66;;;4.74;81.13
16595;BME280;8410;52.532;13.336;2023-01-31T02:19:17;101061.47;;;5.00;81.44
16595;BME280;8410;52.532;13.336;2023-01-31T02:22:03;101070.63;;;4.95;80.84
16595;BME280;8410;52.532;13.336;2023-01-31T02:24:58;101075.66;;;4.94;81.01
16595;BME280;8410;52.532;13.336;2023-01-31T02:27:33;101086.03;;;5.19;80.58
16595;BME280;8410;52.532;13.336;2023-01-31T02:30:37;101090.59;;;5.05;79.82
16595;BME280;8410;52.532;13.336;2023-01-31T02:33:16;101092.88;;;4.99;80.63
16595;BME280;8410;52.532;13.336;2023-01-31T02:35:57;101107.81;;;4.90;81.13
16595;BME280;8410;52.532;13.336;2023-01-31T02:38:37;101104.53;;;5.14;80.29
16595;BME280;8410;52.532;13.336;2023-01-31T02:41:14;101107.19;;;4.96;80.29
16595;BME280;8410;52.532;13.336;2023-01-31T02:43:51;101100.22;;;5.13;79.96
16595;BME280;8410;52.532;13.336;2023-01-31T02:46:42;101107.06;;;4.72;80.59
16595;BME280;8410;52.532;13.336;2023-01-31T02:49:19;101117.91;;;4.68;81.29
16595;BME280;8410;52.532;13.336;2023-01-31T02:52:06;101104.16;;;5.04;80.15
16595;BME280;8410;52.532;13.336;2023-01-31T02:54:50;101106.94;;;4.69;81.94
16595;BME280;8410;52.532;13.336;2023-01-31T02:57:37;101115.91;;;4.80;81.61
16595;BME280;8410;52.532;13.336;2023-01-31T03:00:06;101106.34;;;4.95;80.05
16595;BME280;8410;52.532;13.336;2023-01-31T03:02:34;101108.69;;;4.91;80.05
16595;BME280;8410;52.532;13.336;2023-01-31T03:05:04;101115.53;;;4.71;80.95
16595;BME280;8410;52.532;13.336;2023-01-31T03:07:34;101114.63;;;4.49;81.54
16595;BME280;8410;52.532;13.336;2023-01-31T03:10:14;101106.69;;;4.62;81.77
16595;BME280;8410;52.532;13.336;2023-01-31T03:12:51;101109.53;;;4.49;82.31
16595;BME280;8410;52.532;13.336;2023-01-31T03:15:37;101115.69;;;4.35;82.82
16595;BME280;8410;52.532;13.336;2023-01-31T03:18:27;101113.94;;;4.14;84.09
16595;BME280;8410;52.532;13.336;2023-01-31T03:21:02;101115.00;;;4.39;83.11
16595;BME280;8410;52.532;13.336;2023-01-31T03:23:32;101113.69;;;4.28;83.04
16595;BME280;8410;52.532;13.336;2023-01-31T03:26:03;101111.00;;;4.65;82.92
16595;BME280;8410;52.532;13.336;2023-01-31T03:28:33;101114.63;;;4.49;82.89
16595;BME280;8410;52.532;13.336;2023-01-31T03:31:05;101122.97;;;4.27;83.91
16595;BME280;8410;52.532;13.336;2023-01-31T03:33:35;101131.16;;;4.59;82.66
16595;BME280;8410;52.532;13.336;2023-01-31T03:36:10;101136.13;;;4.56;83.45
16595;BME280;8410;52.532;13.336;2023-01-31T03:38:47;101137.47;;;4.67;82.24
16595;BME280;8410;52.532;13.336;2023-01-31T03:41:23;101139.13;;;4.67;82.91
16595;BME280;8410;52.532;13.336;2023-01-31T03:43:58;101129.06;;;4.70;82.19
16595;BME280;8410;52.532;13.336;2023-01-31T03:46:31;101146.75;;;4.86;82.54
16595;BME280;8410;52.532;13.336;2023-01-31T03:49:03;101153.69;;;5.09;80.92
16595;BME280;8410;52.532;13.336;2023-01-31T03:51:37;101148.88;;;4.96;81.40
16595;BME280;8410;52.532;13.336;2023-01-31T03:54:10;101154.25;;;4.42;82.50
16595;BME280;8410;52.532;13.336;2023-01-31T03:56:42;101159.69;;;4.31;84.35
16595;BME280;8410;52.532;13.336;2023-01-31T03:59:15;101162.63;;;4.59;84.26
16595;BME280;8410;52.532;13.336;2023-01-31T04:01:47;101169.19;;;4.35;83.91
16595;BME280;8410;52.532;13.336;2023-01-31T04:04:18;101160.03;;;4.58;84.35
16595;BME280;8410;52.532;13.336;2023-01-31T04:06:48;101168.13;;;4.69;82.50
16595;BME280;8410;52.532;13.336;2023-01-31T04:09:16;101166.84;;;4.59;83.97
16595;BME280;8410;52.532;13.336;2023-01-31T04:11:47;101163.03;;;4.69;83.23
16595;BME280;8410;52.532;13.336;2023-01-31T04:14:15;101163.84;;;4.29;84.40
16595;BME280;8410;52.532;13.336;2023-01-31T04:16:43;101156.50;;;4.17;85.05
16595;BME280;8410;52.532;13.336;2023-01-31T04:19:10;101156.47;;;4.35;85.79
16595;BME280;8410;52.532;13.336;2023-01-31T04:21:38;101161.44;;;4.32;85.03
16595;BME280;8410;52.532;13.336;2023-01-31T04:24:07;101162.22;;;4.50;84.33
16595;BME280;8410;52.532;13.336;2023-01-31T04:26:36;101158.09;;;4.52;85.14
16595;BME280;8410;52.532;13.336;2023-01-31T04:29:03;101158.00;;;4.51;85.49
16595;BME280;8410;52.532;13.336;2023-01-31T04:31:31;101160.94;;;4.40;85.14
16595;BME280;8410;52.532;13.336;2023-01-31T04:33:58;101157.69;;;4.62;85.83
16595;BME280;8410;52.532;13.336;2023-01-31T04:36:26;101160.75;;;4.75;84.94
16595;BME280;8410;52.532;13.336;2023-01-31T04:38:53;101160.06;;;4.79;83.16
16595;BME280;8410;52.532;13.336;2023-01-31T04:41:22;101171.16;;;4.79;84.88
16595;BME280;8410;52.532;13.336;2023-01-31T04:43:49;101180.66;;;5.03;83.68
16595;BME280;8410;52.532;13.336;2023-01-31T04:46:17;101187.84;;;4.73;85.32
16595;BME280;8410;52.532;13.336;2023-01-31T04:48:45;101194.97;;;4.60;85.54
16595;BME280;8410;52.532;13.336;2023-01-31T04:51:12;101195.78;;;4.79;85.67
16595;BME280;8410;52.532;13.336;2023-01-31T04:53:42;101200.50;;;5.10;83.91
16595;BME280;8410;52.532;13.336;2023-01-31T04:56:09;101206.06;;;5.42;82.25
16595;BME280;8410;52.532;13.336;2023-01-31T04:58:38;101202.13;;;5.29;83.07
16595;BME280;8410;52.532;13.336;2023-01-31T05:01:06;101189.66;;;5.16;82.76
16595;BME280;8410;52.532;13.336;2023-01-31T05:03:34;101201.69;;;5.39;82.50
16595;BME280;8410;52.532;13.336;2023-01-31T05:06:02;101203.16;;;4.92;83.38
16595;BME280;8410;52.532;13.336;2023-01-31T05:08:29;101198.38;;;4.80;85.14
16595;BME280;8410;52.532;13.336;2023-01-31T05:10:57;101201.72;;;4.99;84.13
16595;BME280;8410;52.532;13.336;2023-01-31T05:13:28;101199.94;;;4.57;85.22
16595;BME280;8410;52.532;13.336;2023-01-31T05:15:59;101190.84;;;4.62;85.33
16595;BME280;8410;52.532;13.336;2023-01-31T05:18:27;101187.69;;;5.08;85.73
16595;BME280;8410;52.532;13.336;2023-01-31T05:20:54;101194.03;;;4.78;84.68
16595;BME280;8410;52.532;13.336;2023-01-31T05:23:21;101190.72;;;5.21;84.43
16595;BME280;8410;52.532;13.336;2023-01-31T05:25:49;101187.75;;;5.31;84.19
16595;BME280;8410;52.532;13.336;2023-01-31T05:28:17;101183.53;;;4.91;84.06
16595;BME280;8410;52.532;13.336;2023-01-31T05:30:45;101180.50;;;5.21;85.00
16595;BME280;8410;52.532;13.336;2023-01-31T05:33:13;101196.78;;;5.23;84.41
16595;BME280;8410;52.532;13.336;2023-01-31T05:35:41;101195.53;;;5.34;83.07
16595;BME280;8410;52.532;13.336;2023-01-31T05:38:09;101196.34;;;5.75;82.08
16595;BME280;8410;52.532;13.336;2023-01-31T05:40:36;101198.19;;;5.79;82.52
16595;BME280;8410;52.532;13.336;2023-01-31T05:43:04;101209.03;;;5.52;82.10
16595;BME280;8410;52.532;13.336;2023-01-31T05:45:32;101216.41;;;5.24;83.17
16595;BME280;8410;52.532;13.336;2023-01-31T05:47:59;101206.41;;;5.72;82.61
16595;BME280;8410;52.532;13.336;2023-01-31T05:50:29;101209.25;;;5.57;82.06
16595;BME280;8410;52.532;13.336;2023-01-31T05:52:57;101210.06;;;5.35;85.19
16595;BME280;8410;52.532;13.336;2023-01-31T05:55:26;101209.16;;;5.56;83.44
16595;BME280;8410;52.532;13.336;2023-01-31T05:57:54;101208.41;;;5.79;84.19
16595;BME280;8410;52.532;13.336;2023-01-31T06:00:22;101207.53;;;5.79;82.58
16595;BME280;8410;52.532;13.336;2023-01-31T06:02:49;101208.47;;;6.02;82.52
16595;BME280;8410;52.532;13.336;2023-01-31T06:05:17;101227.88;;;5.55;83.19
16595;BME280;8410;52.532;13.336;2023-01-31T06:07:46;101219.44;;;5.78;85.00
16595;BME280;8410;52.532;13.336;2023-01-31T06:10:14;101212.84;;;5.83;82.92
16595;BME280;8410;52.532;13.336;2023-01-31T06:12:41;101220.50;;;5.41;84.21
16595;BME280;8410;52.532;13.336;2023-01-31T06:15:09;101218.06;;;5.65;83.97
16595;BME280;8410;52.532;13.336;2023-01-31T06:17:37;101208.91;;;6.14;83.22
16595;BME280;8410;52.532;13.336;2023-01-31T06:20:05;101216.09;;;6.47;81.53
16595;BME280;8410;52.532;13.336;2023-01-31T06:22:33;101221.13;;;6.21;81.76
16595;BME280;8410;52.532;13.336;2023-01-31T06:25:01;101220.66;;;6.31;80.79
16595;BME280;8410;52.532;13.336;2023-01-31T06:27:30;101224.16;;;6.11;82.04
16595;BME280;8410;52.532;13.336;2023-01-31T06:29:58;101234.06;;;6.03;83.36
16595;BME280;8410;52.532;13.336;2023-01-31T06:32:26;101236.34;;;6.40;81.51
16595;BME280;8410;52.532;13.336;2023-01-31T06:34:53;101239.47;;;6.33;81.44
16595;BME280;8410;52.532;13.336;2023-01-31T06:37:21;101234.19;;;6.51;80.82
16595;BME280;8410;52.532;13.336;2023-01-31T06:39:48;101247.50;;;6.20;82.17
16595;BME280;8410;52.532;13.336;2023-01-31T06:42:17;101240.88;;;5.82;82.41
16595;BME280;8410;52.532;13.336;2023-01-31T06:44:45;101236.88;;;6.32;80.99
16595;BME280;8410;52.532;13.336;2023-01-31T06:47:12;101240.31;;;6.55;80.88
16595;BME280;8410;52.532;13.336;2023-01-31T06:49:40;101241.09;;;6.09;82.41
16595;BME280;8410;52.532;13.336;2023-01-31T06:52:07;101233.78;;;5.95;84.04
16595;BME280;8410;52.532;13.336;2023-01-31T06:54:35;101241.59;;;6.68;81.87
16595;BME280;8410;52.532;13.336;2023-01-31T06:57:02;101239.81;;;5.97;82.96
16595;BME280;8410;52.532;13.336;2023-01-31T06:59:31;101240.53;;;6.16;85.24
16595;BME280;8410;52.532;13.336;2023-01-31T07:01:58;101235.06;;;6.29;82.85
16595;BME280;8410;52.532;13.336;2023-01-31T07:04:26;101239.47;;;6.33;83.39
16595;BME280;8410;52.532;13.336;2023-01-31T07:06:54;101238.63;;;6.79;82.19
16595;BME280;8410;52.532;13.336;2023-01-31T07:09:22;101235.41;;;6.61;82.99
16595;BME280;8410;52.532;13.336;2023-01-31T07:11:50;101241.88;;;6.29;82.93
16595;BME280;8410;52.532;13.336;2023-01-31T07:14:17;101241.59;;;6.21;84.74
16595;BME280;8410;52.532;13.336;2023-01-31T07:16:46;101223.19;;;6.54;83.43
16595;BME280;8410;52.532;13.336;2023-01-31T07:19:14;101215.88;;;5.95;83.66
16595;BME280;8410;52.532;13.336;2023-01-31T07:21:41;101215.16;;;6.67;84.08
16595;BME280;8410;52.532;13.336;2023-01-31T07:24:10;101232.88;;;6.87;81.87
16595;BME280;8410;52.532;13.336;2023-01-31T07:26:37;101230.03;;;7.03;80.88
16595;BME280;8410;52.532;13.336;2023-01-31T07:29:05;101222.88;;;6.45;83.13
16595;BME280;8410;52.532;13.336;2023-01-31T07:31:32;101232.69;;;5.90;85.87
16595;BME280;8410;52.532;13.336;2023-01-31T07:34:01;101226.31;;;6.69;84.31
16595;BME280;8410;52.532;13.336;2023-01-31T07:36:28;101224.13;;;6.33;84.57
16595;BME280;8410;52.532;13.336;2023-01-31T07:38:57;101216.88;;;6.68;82.69
16595;BME280;8410;52.532;13.336;2023-01-31T07:41:25;101227.88;;;6.19;84.66
16595;BME280;8410;52.532;13.336;2023-01-31T07:43:52;101228.09;;;6.96;83.47
16595;BME280;8410;52.532;13.336;2023-01-31T07:46:20;101226.22;;;6.44;83.21
16595;BME280;8410;52.532;13.336;2023-01-31T07:48:48;101222.00;;;6.68;83.95
16595;BME280;8410;52.532;13.336;2023-01-31T07:51:16;101227.22;;;6.02;84.69
16595;BME280;8410;52.532;13.336;2023-01-31T07:53:44;101226.91;;;6.62;83.87
16595;BME280;8410;52.532;13.336;2023-01-31T07:56:13;101227.41;;;6.29;84.55
16595;BME280;8410;52.532;13.336;2023-01-31T07:58:42;101220.91;;;6.85;85.15
16595;BME280;8410;52.532;13.336;2023-01-31T08:01:13;101229.16;;;7.02;82.42
16595;BME280;8410;52.532;13.336;2023-01-31T08:03:58;101224.47;;;5.97;85.71
16595;BME280;8410;52.532;13.336;2023-01-31T08:06:45;101226.91;;;6.62;83.52
16595;BME280;8410;52.532;13.336;2023-01-31T08:09:13;101221.06;;;6.19;85.62
16595;BME280;8410;52.532;13.336;2023-01-31T08:11:41;101218.25;;;6.82;85.30
16595;BME280;8410;52.532;13.336;2023-01-31T08:14:08;101227.78;;;5.53;86.92
16595;BME280;8410;52.532;13.336;2023-01-31T08:16:36;101218.47;;;6.65;86.45
16595;BME280;8410;52.532;13.336;2023-01-31T08:19:05;101218.09;;;6.78;84.42
16595;BME280;8410;52.532;13.336;2023-01-31T08:21:32;101211.13;;;6.74;84.36
16595;BME280;8410;52.532;13.336;2023-01-31T08:24:01;101210.66;;;6.37;85.13
16595;BME280;8410;52.532;13.336;2023-01-31T08:26:28;101205.47;;;7.08;82.68
16595;BME280;8410;52.532;13.336;2023-01-31T08:28:57;101204.97;;;7.18;82.17
16595;BME280;8410;52.532;13.336;2023-01-31T08:31:26;101200.88;;;6.50;84.07
16595;BME280;8410;52.532;13.336;2023-01-31T08:33:55;101203.47;;;6.27;86.93
16595;BME280;8410;52.532;13.336;2023-01-31T08:36:24;101205.88;;;6.71;84.59
16595;BME280;8410;52.532;13.336;2023-01-31T08:38:53;101190.44;;;6.21;85.89
16595;BME280;8410;52.532;13.336;2023-01-31T08:41:24;101197.88;;;6.37;86.99
16595;BME280;8410;52.532;13.336;2023-01-31T08:43:52;101191.81;;;6.35;87.48
16595;BME280;8410;52.532;13.336;2023-01-31T08:46:25;101182.56;;;7.11;84.34
16595;BME280;8410;52.532;13.336;2023-01-31T08:48:53;101192.13;;;7.17;84.52
16595;BME280;8410;52.532;13.336;2023-01-31T08:51:21;101192.69;;;6.60;84.75
16595;BME280;8410;52.532;13.336;2023-01-31T08:53:49;101197.81;;;6.60;85.51
16595;BME280;8410;52.532;13.336;2023-01-31T08:56:17;101194.78;;;6.70;85.09
16595;BME280;8410;52.532;13.336;2023-01-31T08:58:48;101186.63;;;7.32;83.83
16595;BME280;8410;52.532;13.336;2023-01-31T09:01:17;101195.31;;;6.85;84.48
16595;BME280;8410;52.532;13.336;2023-01-31T09:03:46;101189.59;;;7.18;83.70
16595;BME280;8410;52.532;13.336;2023-01-31T09:06:17;101179.28;;;7.69;81.57
16595;BME280;8410;52.532;13.336;2023-01-31T09:08:45;101181.34;;;7.53;82.28
16595;BME280;8410;52.532;13.336;2023-01-31T09:11:13;101184.03;;;7.30;82.97
16595;BME280;8410;52.532;13.336;2023-01-31T09:13:43;101176.88;;;7.74;81.80
16595;BME280;8410;52.532;13.336;2023-01-31T09:16:13;101173.19;;;7.12;83.56
16595;BME280;8410;52.532;13.336;2023-01-31T09:18:41;101163.47;;;7.54;81.27
16595;BME280;8410;52.532;13.336;2023-01-31T09:21:10;101162.19;;;7.41;81.44
16595;BME280;8410;52.532;13.336;2023-01-31T09:23:38;101164.91;;;6.69;83.63
16595;BME280;8410;52.532;13.336;2023-01-31T09:26:08;101154.66;;;7.46;81.51
16595;BME280;8410;52.532;13.336;2023-01-31T09:28:36;101160.25;;;7.34;81.58
16595;BME280;8410;52.532;13.336;2023-01-31T09:31:04;101161.19;;;7.11;81.93
16595;BME280;8410;52.532;13.336;2023-01-31T09:33:34;101157.78;;;7.64;82.36
16595;BME280;8410;52.532;13.336;2023-01-31T09:36:04;101145.19;;;7.70;80.69
16595;BME280;8410;52.532;13.336;2023-01-31T09:38:33;101145.09;;;7.67;80.53
16595;BME280;8410;52.532;13.336;2023-01-31T09:41:03;101151.09;;;8.27;78.56
16595;BME280;8410;52.532;13.336;2023-01-31T09:43:33;101146.84;;;7.99;77.67
16595;BME280;8410;52.532;13.336;2023-01-31T09:46:04;101143.06;;;7.57;80.29
16595;BME280;8410;52.532;13.336;2023-01-31T09:48:36;101131.19;;;8.18;78.55
16595;BME280;8410;52.532;13.336;2023-01-31T09:51:06;101136.28;;;7.59;78.60
16595;BME280;8410;52.532;13.336;2023-01-31T09:53:35;101125.19;;;8.17;77.03
16595;BME280;8410;52.532;13.336;2023-01-31T09:56:14;101122.75;;;8.22;78.33
16595;BME280;8410;52.532;13.336;2023-01-31T09:58:54;101126.81;;;8.44;77.75
16595;BME280;8410;52.532;13.336;2023-01-31T10:01:25;101124.75;;;7.73;77.85
16595;BME280;8410;52.532;13.336;2023-01-31T10:04:07;101110.66;;;7.05;81.78
16595;BME280;8410;52.532;13.336;2023-01-31T10:06:42;101111.47;;;7.58;80.25
16595;BME280;8410;52.532;13.336;2023-01-31T10:09:18;101107.53;;;7.41;81.23
16595;BME280;8410;52.532;13.336;2023-01-31T10:11:49;101107.16;;;7.03;82.22
16595;BME280;8410;52.532;13.336;2023-01-31T10:14:23;101103.03;;;7.91;81.19
16595;BME280;8410;52.532;13.336;2023-01-31T10:17:12;101094.38;;;8.46;77.13
16595;BME280;8410;52.532;13.336;2023-01-31T10:19:47;101095.81;;;7.78;80.35
16595;BME280;8410;52.532;13.336;2023-01-31T10:22:20;101086.41;;;7.48;79.86
16595;BME280;8410;52.532;13.336;2023-01-31T10:24:53;101085.75;;;7.26;81.14
16595;BME280;8410;52.532;13.336;2023-01-31T10:27:34;101090.28;;;7.08;82.62
16595;BME280;8410;52.532;13.336;2023-01-31T10:30:14;101094.19;;;7.80;81.09
16595;BME280;8410;52.532;13.336;2023-01-31T10:32:44;101077.69;;;6.89;82.48
16595;BME280;8410;52.532;13.336;2023-01-31T10:35:18;101072.63;;;7.44;82.63
16595;BME280;8410;52.532;13.336;2023-01-31T10:37:50;101053.47;;;6.77;85.62
16595;BME280;8410;52.532;13.336;2023-01-31T10:40:22;101050.31;;;7.69;84.83
16595;BME280;8410;52.532;13.336;2023-01-31T10:42:57;101048.06;;;7.80;82.73
16595;BME280;8410;52.532;13.336;2023-01-31T10:45:27;101050.22;;;7.96;83.04
16595;BME280;8410;52.532;13.336;2023-01-31T10:48:10;101040.50;;;7.54;82.73
16595;BME280;8410;52.532;13.336;2023-01-31T10:50:46;101044.00;;;7.88;82.56
16595;BME280;8410;52.532;13.336;2023-01-31T10:53:43;101041.69;;;8.27;82.38
16595;BME280;8410;52.532;13.336;2023-01-31T10:56:19;101033.19;;;7.98;83.35
16595;BME280;8410;52.532;13.336;2023-01-31T10:58:52;101028.41;;;8.10;81.69
16595;BME280;8410;52.532;13.336;2023-01-31T11:01:20;101021.88;;;8.22;80.20
16595;BME280;8410;52.532;13.336;2023-01-31T11:03:49;101012.38;;;7.00;82.89
16595;BME280;8410;52.532;13.336;2023-01-31T11:06:20;101013.03;;;7.50;82.47
16595;BME280;8410;52.532;13.336;2023-01-31T11:08:49;101010.28;;;7.15;85.67
16595;BME280;8410;52.532;13.336;2023-01-31T11:11:21;100997.16;;;7.93;80.97
16595;BME280;8410;52.532;13.336;2023-01-31T11:13:56;100990.44;;;6.81;85.53
16595;BME280;8410;52.532;13.336;2023-01-31T11:16:26;100991.50;;;7.73;82.27
16595;BME280;8410;52.532;13.336;2023-01-31T11:18:57;100980.84;;;8.22;80.40
16595;BME280;8410;52.532;13.336;2023-01-31T11:21:29;100970.66;;;7.93;80.65
16595;BME280;8410;52.532;13.336;2023-01-31T11:24:01;100981.66;;;7.57;82.34
16595;BME280;8410;52.532;13.336;2023-01-31T11:26:32;100962.03;;;7.58;82.08
16595;BME280;8410;52.532;13.336;2023-01-31T11:29:01;100951.56;;;7.82;81.51
16595;BME280;8410;52.532;13.336;2023-01-31T11:31:35;100945.44;;;8.08;81.84
16595;BME280;8410;52.532;13.336;2023-01-31T11:34:17;100944.53;;;8.06;81.84
16595;BME280;8410;52.532;13.336;2023-01-31T11:36:46;100930.28;;;8.51;80.23
16595;BME280;8410;52.532;13.336;2023-01-31T11:39:24;100931.44;;;8.29;80.96
16595;BME280;8410;52.532;13.336;2023-01-31T11:41:52;100935.66;;;7.32;85.09
16595;BME280;8410;52.532;13.336;2023-01-31T11:44:21;100928.88;;;7.95;83.42
16595;BME280;8410;52.532;13.336;2023-01-31T11:46:51;100919.09;;;7.49;85.68
16595;BME280;8410;52.532;13.336;2023-01-31T11:49:29;100916.31;;;7.41;83.74
16595;BME280;8410;52.532;13.336;2023-01-31T11:52:01;100910.56;;;7.82;85.79
16595;BME280;8410;52.532;13.336;2023-01-31T11:54:39;100903.16;;;7.59;84.59
16595;BME280;8410;52.532;13.336;2023-01-31T11:57:13;100892.97;;;7.62;84.12
16595;BME280;8410;52.532;13.336;2023-01-31T11:59:41;100883.56;;;8.29;82.88
16595;BME280;8410;52.532;13.336;2023-01-31T12:02:23;100881.03;;;7.96;80.98
16595;BME280;8410;52.532;13.336;2023-01-31T12:04:52;100870.25;;;8.44;80.75
16595;BME280;8410;52.532;13.336;2023-01-31T12:07:24;100855.88;;;7.81;80.58
16595;BME280;8410;52.532;13.336;2023-01-31T12:09:52;100847.22;;;8.12;83.42
16595;BME280;8410;52.532;13.336;2023-01-31T12:12:22;100841.31;;;7.79;85.48
16595;BME280;8410;52.532;13.336;2023-01-31T12:14:50;100830.84;;;8.06;84.02
16595;BME280;8410;52.532;13.336;2023-01-31T12:17:21;100826.78;;;7.79;86.50
16595;BME280;8410;52.532;13.336;2023-01-31T12:20:06;100823.91;;;8.38;83.33
16595;BME280;8410;52.532;13.336;2023-01-31T12:22:59;100816.84;;;7.58;83.93
16595;BME280;8410;52.532;13.336;2023-01-31T12:25:43;100816.13;;;7.62;85.80
16595;BME280;8410;52.532;13.336;2023-01-31T12:28:22;100808.59;;;7.37;87.43
16595;BME280;8410;52.532;13.336;2023-01-31T12:31:04;100810.91;;;7.59;86.75
16595;BME280;8410;52.532;13.336;2023-01-31T12:33:40;100807.81;;;8.44;84.75
16595;BME280;8410;52.532;13.336;2023-01-31T12:36:24;100792.16;;;7.95;86.12
16595;BME280;8410;52.532;13.336;2023-01-31T12:39:17;100789.09;;;7.75;85.93
16595;BME280;8410;52.532;13.336;2023-01-31T12:41:59;100773.47;;;8.38;84.55
16595;BME280;8410;52.532;13.336;2023-01-31T12:44:43;100776.34;;;8.52;85.72
16595;BME280;8410;52.532;13.336;2023-01-31T12:47:36;100780.00;;;7.20;87.85
16595;BME280;8410;52.532;13.336;2023-01-31T12:50:25;100777.22;;;7.79;90.14
16595;BME280;8410;52.532;13.336;2023-01-31T12:53:13;100759.44;;;7.85;87.46
16595;BME280;8410;52.532;13.336;2023-01-31T12:55:53;100755.41;;;7.60;90.01
16595;BME280;8410;52.532;13.336;2023-01-31T12:58:36;100753.94;;;7.69;90.29
16595;BME280;8410;52.532;13.336;2023-01-31T13:01:08;100749.50;;;7.62;89.58
16595;BME280;8410;52.532;13.336;2023-01-31T13:03:53;100748.50;;;7.24;92.18
16595;BME280;8410;52.532;13.336;2023-01-31T13:06:24;100750.63;;;7.39;92.30
16595;BME280;8410;52.532;13.336;2023-01-31T13:08:58;100749.91;;;7.11;92.22
16595;BME280;8410;52.532;13.336;2023-01-31T13:11:38;100745.88;;;7.54;91.71
16595;BME280;8410;52.532;13.336;2023-01-31T13:14:11;100743.53;;;7.63;92.66
16595;BME280;8410;52.532;13.336;2023-01-31T13:16:42;100745.97;;;7.57;93.19
16595;BME280;8410;52.532;13.336;2023-01-31T13:19:14;100745.88;;;7.54;91.45
16595;BME280;8410;52.532;13.336;2023-01-31T13:21:47;100737.28;;;7.87;91.94
16595;BME280;8410;52.532;13.336;2023-01-31T13:24:20;100726.50;;;7.65;90.27
16595;BME280;8410;52.532;13.336;2023-01-31T13:26:55;100726.53;;;6.99;92.75